Bei Facebook empfehlenBei Twitter postenGoogle plusPinterest

Das Wetter im Erzgebirge am 01.09.2017

Wetter und Klima am 01.09.2017 Holzhau im Erzgebirge (630m ü.NN)
Letzte gemessene Temperatur und Uhrzeit der Messung23:45:00 Uhr8.30 °C
Temperatur (Maximum / Höchstwert) und Uhrzeit der Messung00:00:00 Uhr12.40 °C
Temperatur (Minimum / Tiefstwert) und Uhrzeit der Messung23:45:008.30 °C
Errechneter Absolutwert der Temperaturschwankungen zwischen Tmin und Tmax des Tages4.10 K
Errechnete Tagesmitteltemperatur10.61875 °C
Gesamt - Niederschlag des Tages (in flüssiger Form)18.13 Liter / m²
Luftdruck (Maximum / Höchstwert) und Zeitpunkt der Messung01:30:00 Uhr1016.90 hPa
Luftdruck (Minimum / Tiefstwert) und Zeitpunkt der Messung07:30:00 Uhr1015.00 hPa
Errechneter Absolutwert der Luftdruckschwankungen des Tages1.90 hPa
Höchste gemessene Windgeschwindigkeit und Uhrzeit der Messung07:00:00 Uhr19.44 km/h
Errechnete Windhäufigkeit in Relation zu den Messwerten des Tages3.12500 %
Niedrigste Windkühle (Windchill) und Zeitpunkt der Messung23:45:00 Uhr8.30 °C
Taupunkt (Maximum / Höchstwert) und Uhrzeit der Messung01:30:00 Uhr11.50 °C
Taupunkt (Minimum / Tiefstwert) und Uhrzeit der Messung23:45:007.40 °C
Anzahl der automatisch eingelesenen Messwerte 96

Detaillierte Wetter- und Klima- Messwerte für den 01.09.2017 in Holzhau im Erzgebirge (630m ü.NN)
ZeitTemperaturLuftdruckRel. LuftfeuchteWindWindrichtungWindchillTaupunktNiederschlag l/m²
23:45:008.30 °C1015.60 hPa94.00 %7.40 °C18.13
23:30:008.40 °C1015.60 hPa95.00 %7.60 °C18.13
23:15:008.40 °C1015.70 hPa94.00 %7.50 °C18.13
23:00:008.30 °C1015.70 hPa94.00 %7.40 °C18.13
22:45:008.40 °C1015.50 hPa94.00 %7.50 °C18.13
22:30:008.60 °C1015.50 hPa94.00 %7.70 °C18.13
22:15:008.70 °C1015.40 hPa94.00 %7.80 °C18.13
22:00:008.80 °C1015.50 hPa94.00 %7.90 °C18.13
21:45:008.90 °C1015.60 hPa94.00 %8.00 °C18.13
21:30:008.90 °C1015.60 hPa94.00 %8.00 °C18.13
21:15:008.90 °C1015.70 hPa94.00 %8.00 °C18.13
21:00:008.90 °C1015.80 hPa94.00 %8.00 °C18.13
20:45:008.90 °C1016.00 hPa94.00 %8.00 °C18.13
20:30:008.90 °C1015.80 hPa94.00 %8.00 °C18.13
20:15:008.90 °C1015.70 hPa94.00 %8.00 °C18.13
20:00:009.00 °C1015.70 hPa94.00 %8.10 °C18.13
19:45:009.30 °C1015.80 hPa94.00 %8.40 °C18.13
19:30:009.40 °C1015.80 hPa94.00 %8.50 °C18.13
19:15:009.60 °C1015.50 hPa93.00 %8.50 °C18.13
19:00:009.90 °C1015.50 hPa93.00 %8.80 °C18.13
18:45:0010.10 °C1015.60 hPa94.00 %9.20 °C18.13
18:30:009.90 °C1015.50 hPa94.00 %9.00 °C18.13
18:15:009.80 °C1015.40 hPa94.00 %8.90 °C18.13
18:00:009.60 °C1015.50 hPa94.00 %8.70 °C18.13
17:45:009.50 °C1015.80 hPa94.00 %8.60 °C18.13
17:30:009.80 °C1015.20 hPa94.00 %6.48 km/hSO9.80 °C8.90 °C18.13
17:15:009.90 °C1015.50 hPa94.00 %9.00 °C18.13
17:00:009.90 °C1015.70 hPa94.00 %9.00 °C18.13
16:45:009.90 °C1015.70 hPa94.00 %9.00 °C18.13
16:30:0010.30 °C1016.00 hPa94.00 %9.40 °C18.13
16:15:0010.40 °C1015.80 hPa94.00 %9.50 °C17.62
16:00:0010.10 °C1015.90 hPa94.00 %9.20 °C17.62
15:45:0010.10 °C1015.70 hPa94.00 %9.20 °C17.62
15:30:0010.10 °C1015.70 hPa94.00 %9.20 °C17.62
15:15:0010.30 °C1015.70 hPa93.00 %9.20 °C17.62
15:00:0010.60 °C1016.00 hPa94.00 %9.70 °C17.10
14:45:0010.80 °C1016.10 hPa94.00 %9.90 °C17.10
14:30:0010.60 °C1015.80 hPa95.00 %9.80 °C17.10
14:15:0010.70 °C1015.90 hPa95.00 %9.90 °C16.58
14:00:0010.70 °C1015.70 hPa95.00 %9.90 °C16.58
13:45:0010.60 °C1015.60 hPa95.00 %9.80 °C16.06
13:30:0010.60 °C1015.60 hPa95.00 %9.80 °C15.54
13:15:0010.80 °C1015.90 hPa95.00 %10.00 °C15.03
13:00:0010.90 °C1015.80 hPa95.00 %10.10 °C14.51
12:45:0010.90 °C1015.60 hPa95.00 %10.10 °C13.99
12:30:0010.90 °C1015.10 hPa95.00 %10.10 °C12.95
12:15:0010.90 °C1015.30 hPa95.00 %10.10 °C12.44
12:00:0010.90 °C1015.20 hPa95.00 %10.10 °C11.92
11:45:0010.90 °C1015.20 hPa95.00 %10.10 °C10.36
11:30:0010.80 °C1015.50 hPa95.00 %10.00 °C9.85
11:15:0011.00 °C1015.50 hPa95.00 %10.20 °C9.33
11:00:0011.30 °C1015.40 hPa95.00 %10.50 °C8.29
10:45:0011.30 °C1015.40 hPa95.00 %10.50 °C7.26
10:30:0011.40 °C1015.40 hPa95.00 %10.60 °C6.74
10:15:0011.20 °C1015.60 hPa95.00 %10.40 °C6.74
10:00:0010.90 °C1015.60 hPa95.00 %10.10 °C6.22
09:45:0010.90 °C1015.70 hPa95.00 %10.10 °C6.22
09:30:0010.80 °C1015.40 hPa95.00 %10.00 °C5.70
09:15:0010.90 °C1015.70 hPa95.00 %10.10 °C5.70
09:00:0010.90 °C1015.30 hPa95.00 %10.10 °C5.70
08:45:0010.80 °C1015.50 hPa95.00 %10.00 °C5.70
08:30:0010.80 °C1015.30 hPa95.00 %10.00 °C5.18
08:15:0011.10 °C1015.30 hPa95.00 %10.30 °C4.67
08:00:0011.30 °C1015.10 hPa96.00 %10.70 °C4.15
07:45:0011.30 °C1015.10 hPa96.00 %10.70 °C3.63
07:30:0011.30 °C1015.00 hPa96.00 %10.70 °C3.63
07:15:0011.30 °C1015.30 hPa96.00 %10.70 °C3.11
07:00:0011.30 °C1015.20 hPa96.00 %19.44 km/hSW11.10 °C10.70 °C2.59
06:45:0011.30 °C1015.80 hPa96.00 %10.70 °C2.59
06:30:0011.40 °C1016.10 hPa96.00 %10.80 °C2.59
06:15:0011.40 °C1016.20 hPa96.00 %10.80 °C2.08
06:00:0011.40 °C1016.10 hPa96.00 %10.80 °C2.08
05:45:0011.40 °C1016.20 hPa95.00 %10.60 °C2.08
05:30:0011.40 °C1016.20 hPa95.00 %10.60 °C2.08
05:15:0011.40 °C1016.40 hPa95.00 %10.60 °C2.08
05:00:0011.50 °C1016.50 hPa95.00 %10.70 °C1.56
04:45:0011.50 °C1016.60 hPa95.00 %10.70 °C1.56
04:30:0011.60 °C1016.40 hPa95.00 %10.80 °C1.04
04:15:0011.60 °C1016.40 hPa95.00 %10.80 °C1.04
04:00:0011.60 °C1016.10 hPa95.00 %10.80 °C1.04
03:45:0011.60 °C1016.20 hPa95.00 %10.80 °C1.04
03:30:0011.60 °C1016.40 hPa95.00 %10.80 °C1.04
03:15:0011.80 °C1016.50 hPa95.00 %12.96 km/hWSW11.80 °C11.00 °C1.04
03:00:0011.80 °C1016.40 hPa95.00 %11.00 °C0.52
02:45:0011.90 °C1016.50 hPa95.00 %11.10 °C0.52
02:30:0012.10 °C1016.50 hPa95.00 %11.30 °C0.52
02:15:0012.10 °C1016.50 hPa95.00 %11.30 °C0.52
02:00:0012.10 °C1016.60 hPa95.00 %11.30 °C 
01:45:0012.20 °C1016.70 hPa95.00 %11.40 °C 
01:30:0012.30 °C1016.90 hPa95.00 %11.50 °C 
01:15:0012.30 °C1016.80 hPa95.00 %11.50 °C 
01:00:0012.30 °C1016.80 hPa95.00 %11.50 °C 
00:45:0012.30 °C1016.70 hPa95.00 %11.50 °C 
00:30:0012.30 °C1016.80 hPa95.00 %11.50 °C 
00:15:0012.30 °C1016.60 hPa94.00 %11.40 °C 
00:00:0012.40 °C1016.80 hPa94.00 %11.50 °C 

Permanenter Link zu dieser Seite: Wetter im Erzgebirge am 01.09.2017
Performance-Info: Die Erstellung der Seite / Statistik(en) / Tabelle(n) erforderte 5 Datenbankserver-Abfrage(n) und dauerte 101 Millisekunden. (Dieser Messwert ist von der Gesamt-Auslastung des Servers abhängig.)
Erzgebirge - Wetter | Erzgebirge - Wetter (Mobilgeräte) | Komplette Klimadatenbank